Time,TemperatureF,DewpointF,PressureIn,WindDirection,WindDirectionDegrees,WindSpeedMPH,WindSpeedGustMPH,Humidity,HourlyPrecipIn,Conditions,Clouds,dailyrainin,SoftwareType,DateUTC
2013-08-16 00:11:00,76.0,54.0,-100.00,WNW,301,10.0,14.0,46,-99.99,,,-99.99,,2013-08-16 07:11:00,
2013-08-16 01:11:00,75.0,53.0,-100.00,NW,308,5.0,8.0,46,-99.99,,,-99.99,,2013-08-16 08:11:00,
2013-08-16 02:11:00,75.0,52.0,-100.00,WNW,294,12.0,16.0,44,-99.99,,,-99.99,,2013-08-16 09:11:00,
2013-08-16 03:13:00,72.0,53.0,-100.00,WNW,296,9.0,12.0,51,-99.99,,,-99.99,,2013-08-16 10:13:00,
2013-08-16 04:12:00,73.0,54.0,-100.00,WNW,299,7.0,10.0,51,-99.99,,,-99.99,,2013-08-16 11:12:00,
2013-08-16 05:12:00,72.0,54.0,-100.00,West,281,6.0,12.0,53,-99.99,,,-99.99,,2013-08-16 12:12:00,
2013-08-16 06:11:00,72.0,54.0,-100.00,ESE,103,1.0,3.0,53,-99.99,,,-99.99,,2013-08-16 13:11:00,
2013-08-16 07:11:00,71.0,53.0,-100.00,West,261,3.0,7.0,52,-99.99,,,-99.99,,2013-08-16 14:11:00,
2013-08-16 08:12:00,74.0,54.0,-100.00,WNW,297,7.0,9.0,49,-99.99,,,-99.99,,2013-08-16 15:12:00,
2013-08-16 09:13:00,75.0,54.0,-100.00,North,357,3.0,3.0,47,-99.99,,,-99.99,,2013-08-16 16:13:00,
2013-08-16 10:12:00,78.0,51.0,-100.00,NW,320,6.0,9.0,38,-99.99,,,-99.99,,2013-08-16 17:12:00,
2013-08-16 10:15:00,81.0,47.0,-100.00,North,4,2.0,7.0,30,-99.99,,,-99.99,,2013-08-16 17:15:00,
2013-08-16 12:14:00,84.0,48.0,-100.00,NNE,21,3.0,7.0,28,-99.99,,,-99.99,,2013-08-16 19:14:00,
2013-08-16 13:11:00,86.0,49.0,-100.00,SSE,152,3.0,8.0,27,-99.99,,,-99.99,,2013-08-16 20:11:00,
2013-08-16 14:11:00,88.0,49.0,-100.00,WSW,254,5.0,9.0,26,-99.99,,,-99.99,,2013-08-16 21:11:00,
2013-08-16 15:13:00,90.0,50.0,-100.00,ENE,75,6.0,20.0,25,-99.99,,,-99.99,,2013-08-16 22:13:00,
2013-08-16 16:12:00,87.0,48.0,-100.00,NNW,338,8.0,12.0,25,-99.99,,,-99.99,,2013-08-16 23:12:00,
2013-08-16 17:11:00,89.0,48.0,-100.00,NE,38,5.0,9.0,24,-99.99,,,-99.99,,2013-08-17 00:11:00,
2013-08-16 18:11:00,90.0,48.0,-100.00,ENE,66,3.0,8.0,23,-99.99,,,-99.99,,2013-08-17 01:11:00,
2013-08-16 19:11:00,87.0,50.0,-100.00,SE,129,10.0,14.0,27,-99.99,,,-99.99,,2013-08-17 02:11:00,
2013-08-16 20:11:00,85.0,52.0,-100.00,SE,144,10.0,14.0,32,-99.99,,,-99.99,,2013-08-17 03:11:00,
2013-08-16 21:12:00,84.0,52.0,-100.00,South,173,12.0,16.0,33,-99.99,,,-99.99,,2013-08-17 04:12:00,
2013-08-16 22:12:00,83.0,51.0,-100.00,South,178,12.0,17.0,33,-99.99,,,-99.99,,2013-08-17 05:12:00,
2013-08-16 23:12:00,80.0,51.0,-100.00,SSE,165,10.0,12.0,36,-99.99,,,-99.99,,2013-08-17 06:12:00,